sensor_id;sensor_type;location;lat;lon;timestamp;P1;durP1;ratioP1;P2;durP2;ratioP2
68140;SDS011;54941;52.220;104.306;2024-03-06T00:02:06;43.28;;;22.02;;
68140;SDS011;54941;52.220;104.306;2024-03-06T00:04:33;43.20;;;20.77;;
68140;SDS011;54941;52.220;104.306;2024-03-06T00:06:59;41.50;;;19.55;;
68140;SDS011;54941;52.220;104.306;2024-03-06T00:09:26;42.90;;;21.50;;
68140;SDS011;54941;52.220;104.306;2024-03-06T00:11:54;49.15;;;23.80;;
68140;SDS011;54941;52.220;104.306;2024-03-06T00:14:23;44.53;;;20.98;;
68140;SDS011;54941;52.220;104.306;2024-03-06T00:16:50;41.72;;;19.70;;
68140;SDS011;54941;52.220;104.306;2024-03-06T00:19:17;44.58;;;20.73;;
68140;SDS011;54941;52.220;104.306;2024-03-06T00:21:43;44.53;;;21.70;;
68140;SDS011;54941;52.220;104.306;2024-03-06T00:24:11;45.13;;;20.05;;
68140;SDS011;54941;52.220;104.306;2024-03-06T00:26:39;44.38;;;20.00;;
68140;SDS011;54941;52.220;104.306;2024-03-06T00:29:07;42.47;;;20.13;;
68140;SDS011;54941;52.220;104.306;2024-03-06T00:31:34;48.25;;;20.00;;
68140;SDS011;54941;52.220;104.306;2024-03-06T00:34:00;47.67;;;21.98;;
68140;SDS011;54941;52.220;104.306;2024-03-06T00:36:26;51.17;;;22.15;;
68140;SDS011;54941;52.220;104.306;2024-03-06T00:38:53;44.45;;;22.00;;
68140;SDS011;54941;52.220;104.306;2024-03-06T00:41:19;46.33;;;22.40;;
68140;SDS011;54941;52.220;104.306;2024-03-06T00:43:46;44.83;;;22.00;;
68140;SDS011;54941;52.220;104.306;2024-03-06T00:46:13;50.67;;;24.10;;
68140;SDS011;54941;52.220;104.306;2024-03-06T00:48:40;47.03;;;23.52;;
68140;SDS011;54941;52.220;104.306;2024-03-06T00:51:06;51.03;;;23.23;;
68140;SDS011;54941;52.220;104.306;2024-03-06T00:53:32;51.08;;;23.73;;
68140;SDS011;54941;52.220;104.306;2024-03-06T00:55:59;60.35;;;25.25;;
68140;SDS011;54941;52.220;104.306;2024-03-06T00:58:26;50.15;;;24.02;;
68140;SDS011;54941;52.220;104.306;2024-03-06T01:00:52;54.22;;;23.38;;
68140;SDS011;54941;52.220;104.306;2024-03-06T01:03:20;40.50;;;20.13;;
68140;SDS011;54941;52.220;104.306;2024-03-06T01:05:46;38.35;;;17.95;;
68140;SDS011;54941;52.220;104.306;2024-03-06T01:08:12;34.88;;;16.77;;
68140;SDS011;54941;52.220;104.306;2024-03-06T01:10:38;40.20;;;17.02;;
68140;SDS011;54941;52.220;104.306;2024-03-06T01:13:05;33.22;;;17.45;;
68140;SDS011;54941;52.220;104.306;2024-03-06T01:15:31;32.10;;;14.68;;
68140;SDS011;54941;52.220;104.306;2024-03-06T01:17:57;34.70;;;16.05;;
68140;SDS011;54941;52.220;104.306;2024-03-06T01:20:25;29.30;;;13.70;;
68140;SDS011;54941;52.220;104.306;2024-03-06T01:22:54;29.95;;;13.35;;
68140;SDS011;54941;52.220;104.306;2024-03-06T01:25:21;23.17;;;11.23;;
68140;SDS011;54941;52.220;104.306;2024-03-06T01:27:47;24.88;;;10.57;;
68140;SDS011;54941;52.220;104.306;2024-03-06T01:30:14;22.17;;;9.82;;
68140;SDS011;54941;52.220;104.306;2024-03-06T01:32:40;20.02;;;8.90;;
68140;SDS011;54941;52.220;104.306;2024-03-06T01:35:07;26.70;;;11.60;;
68140;SDS011;54941;52.220;104.306;2024-03-06T01:37:35;23.67;;;10.95;;
68140;SDS011;54941;52.220;104.306;2024-03-06T01:40:01;25.45;;;10.55;;
68140;SDS011;54941;52.220;104.306;2024-03-06T01:42:27;25.13;;;10.93;;
68140;SDS011;54941;52.220;104.306;2024-03-06T01:44:53;29.65;;;12.90;;
68140;SDS011;54941;52.220;104.306;2024-03-06T01:47:20;30.77;;;15.02;;
68140;SDS011;54941;52.220;104.306;2024-03-06T01:49:46;32.65;;;14.43;;
68140;SDS011;54941;52.220;104.306;2024-03-06T01:52:13;34.08;;;14.35;;
68140;SDS011;54941;52.220;104.306;2024-03-06T01:54:43;30.10;;;15.40;;
68140;SDS011;54941;52.220;104.306;2024-03-06T01:57:11;33.95;;;16.00;;
68140;SDS011;54941;52.220;104.306;2024-03-06T01:59:39;34.20;;;16.20;;
68140;SDS011;54941;52.220;104.306;2024-03-06T02:02:06;33.88;;;15.82;;
68140;SDS011;54941;52.220;104.306;2024-03-06T02:04:32;27.67;;;13.30;;
68140;SDS011;54941;52.220;104.306;2024-03-06T02:06:59;26.83;;;12.48;;
68140;SDS011;54941;52.220;104.306;2024-03-06T02:09:25;24.48;;;11.10;;
68140;SDS011;54941;52.220;104.306;2024-03-06T02:11:53;21.77;;;10.40;;
68140;SDS011;54941;52.220;104.306;2024-03-06T02:14:20;25.42;;;10.90;;
68140;SDS011;54941;52.220;104.306;2024-03-06T02:16:46;17.60;;;8.18;;
68140;SDS011;54941;52.220;104.306;2024-03-06T02:19:38;17.42;;;8.23;;
68140;SDS011;54941;52.220;104.306;2024-03-06T02:22:07;27.95;;;10.38;;
68140;SDS011;54941;52.220;104.306;2024-03-06T02:24:34;24.88;;;11.30;;
68140;SDS011;54941;52.220;104.306;2024-03-06T02:27:01;21.08;;;9.60;;
68140;SDS011;54941;52.220;104.306;2024-03-06T02:29:27;22.13;;;11.50;;
68140;SDS011;54941;52.220;104.306;2024-03-06T02:31:54;24.10;;;11.02;;
68140;SDS011;54941;52.220;104.306;2024-03-06T02:34:20;24.60;;;11.55;;
68140;SDS011;54941;52.220;104.306;2024-03-06T02:36:46;20.58;;;9.82;;
68140;SDS011;54941;52.220;104.306;2024-03-06T02:39:14;22.95;;;10.55;;
68140;SDS011;54941;52.220;104.306;2024-03-06T02:41:40;26.20;;;9.90;;
68140;SDS011;54941;52.220;104.306;2024-03-06T02:44:06;21.58;;;11.15;;
68140;SDS011;54941;52.220;104.306;2024-03-06T02:46:33;39.17;;;16.17;;
68140;SDS011;54941;52.220;104.306;2024-03-06T02:48:59;47.30;;;17.15;;
68140;SDS011;54941;52.220;104.306;2024-03-06T02:51:25;28.77;;;13.68;;
68140;SDS011;54941;52.220;104.306;2024-03-06T02:53:51;33.08;;;16.80;;
68140;SDS011;54941;52.220;104.306;2024-03-06T02:56:19;42.65;;;19.67;;
68140;SDS011;54941;52.220;104.306;2024-03-06T02:58:45;39.65;;;19.00;;
68140;SDS011;54941;52.220;104.306;2024-03-06T03:01:13;48.80;;;19.77;;
68140;SDS011;54941;52.220;104.306;2024-03-06T03:03:40;42.22;;;20.60;;
68140;SDS011;54941;52.220;104.306;2024-03-06T03:06:06;47.55;;;21.27;;
68140;SDS011;54941;52.220;104.306;2024-03-06T03:08:33;43.17;;;19.02;;
68140;SDS011;54941;52.220;104.306;2024-03-06T03:10:59;44.83;;;20.15;;
68140;SDS011;54941;52.220;104.306;2024-03-06T03:13:27;41.10;;;21.30;;
68140;SDS011;54941;52.220;104.306;2024-03-06T03:15:53;47.58;;;22.77;;
68140;SDS011;54941;52.220;104.306;2024-03-06T03:18:19;52.85;;;24.45;;
68140;SDS011;54941;52.220;104.306;2024-03-06T03:20:46;46.47;;;22.60;;
68140;SDS011;54941;52.220;104.306;2024-03-06T03:23:12;46.25;;;22.70;;
68140;SDS011;54941;52.220;104.306;2024-03-06T03:25:39;45.20;;;21.92;;
68140;SDS011;54941;52.220;104.306;2024-03-06T03:28:05;45.05;;;22.17;;
68140;SDS011;54941;52.220;104.306;2024-03-06T03:30:33;46.13;;;23.05;;
68140;SDS011;54941;52.220;104.306;2024-03-06T03:32:59;44.92;;;22.02;;
68140;SDS011;54941;52.220;104.306;2024-03-06T03:35:26;47.13;;;22.60;;
68140;SDS011;54941;52.220;104.306;2024-03-06T03:37:52;49.50;;;22.23;;
68140;SDS011;54941;52.220;104.306;2024-03-06T03:40:18;45.65;;;21.88;;
68140;SDS011;54941;52.220;104.306;2024-03-06T03:42:44;48.15;;;21.65;;
68140;SDS011;54941;52.220;104.306;2024-03-06T03:45:11;49.15;;;22.30;;
68140;SDS011;54941;52.220;104.306;2024-03-06T03:47:38;47.78;;;22.65;;
68140;SDS011;54941;52.220;104.306;2024-03-06T03:50:05;49.90;;;20.95;;
68140;SDS011;54941;52.220;104.306;2024-03-06T03:52:32;48.85;;;23.30;;
68140;SDS011;54941;52.220;104.306;2024-03-06T03:54:58;42.55;;;21.73;;
68140;SDS011;54941;52.220;104.306;2024-03-06T03:57:24;41.20;;;20.08;;
68140;SDS011;54941;52.220;104.306;2024-03-06T03:59:51;52.35;;;22.02;;
68140;SDS011;54941;52.220;104.306;2024-03-06T04:02:17;40.38;;;20.17;;
68140;SDS011;54941;52.220;104.306;2024-03-06T04:04:45;40.75;;;19.55;;
68140;SDS011;54941;52.220;104.306;2024-03-06T04:07:11;40.38;;;19.35;;
68140;SDS011;54941;52.220;104.306;2024-03-06T04:09:37;35.33;;;17.80;;
68140;SDS011;54941;52.220;104.306;2024-03-06T04:12:03;36.55;;;18.05;;
68140;SDS011;54941;52.220;104.306;2024-03-06T04:14:30;44.13;;;20.38;;
68140;SDS011;54941;52.220;104.306;2024-03-06T04:16:56;41.75;;;19.02;;
68140;SDS011;54941;52.220;104.306;2024-03-06T04:19:24;38.92;;;19.25;;
68140;SDS011;54941;52.220;104.306;2024-03-06T04:21:51;38.50;;;17.02;;
68140;SDS011;54941;52.220;104.306;2024-03-06T04:24:18;38.75;;;18.17;;
68140;SDS011;54941;52.220;104.306;2024-03-06T04:26:44;39.88;;;19.10;;
68140;SDS011;54941;52.220;104.306;2024-03-06T04:29:10;42.17;;;20.38;;
68140;SDS011;54941;52.220;104.306;2024-03-06T04:31:37;36.80;;;18.05;;
68140;SDS011;54941;52.220;104.306;2024-03-06T04:34:03;38.30;;;17.83;;
68140;SDS011;54941;52.220;104.306;2024-03-06T04:36:29;34.95;;;17.52;;
68140;SDS011;54941;52.220;104.306;2024-03-06T04:38:57;38.20;;;17.35;;
68140;SDS011;54941;52.220;104.306;2024-03-06T04:41:23;30.60;;;16.05;;
68140;SDS011;54941;52.220;104.306;2024-03-06T04:43:49;38.97;;;17.25;;
68140;SDS011;54941;52.220;104.306;2024-03-06T04:46:16;35.55;;;16.33;;
68140;SDS011;54941;52.220;104.306;2024-03-06T04:48:42;37.47;;;16.55;;
68140;SDS011;54941;52.220;104.306;2024-03-06T04:51:08;39.33;;;18.20;;
68140;SDS011;54941;52.220;104.306;2024-03-06T04:53:35;35.85;;;17.75;;
68140;SDS011;54941;52.220;104.306;2024-03-06T04:56:03;38.25;;;18.92;;
68140;SDS011;54941;52.220;104.306;2024-03-06T04:58:29;37.42;;;17.70;;
68140;SDS011;54941;52.220;104.306;2024-03-06T05:00:55;37.28;;;17.77;;
68140;SDS011;54941;52.220;104.306;2024-03-06T05:03:21;37.05;;;16.77;;
68140;SDS011;54941;52.220;104.306;2024-03-06T05:05:48;36.50;;;16.98;;
68140;SDS011;54941;52.220;104.306;2024-03-06T05:08:14;35.00;;;15.65;;
68140;SDS011;54941;52.220;104.306;2024-03-06T05:10:40;36.58;;;16.42;;
68140;SDS011;54941;52.220;104.306;2024-03-06T05:13:08;39.00;;;15.40;;
68140;SDS011;54941;52.220;104.306;2024-03-06T05:15:34;39.63;;;16.15;;
68140;SDS011;54941;52.220;104.306;2024-03-06T05:18:00;34.33;;;16.20;;
68140;SDS011;54941;52.220;104.306;2024-03-06T05:20:27;30.23;;;14.93;;
68140;SDS011;54941;52.220;104.306;2024-03-06T05:22:54;32.00;;;15.52;;
68140;SDS011;54941;52.220;104.306;2024-03-06T05:25:20;30.33;;;15.18;;
68140;SDS011;54941;52.220;104.306;2024-03-06T05:27:46;35.33;;;15.45;;
68140;SDS011;54941;52.220;104.306;2024-03-06T05:30:14;31.40;;;15.90;;
68140;SDS011;54941;52.220;104.306;2024-03-06T05:32:41;34.22;;;16.77;;
68140;SDS011;54941;52.220;104.306;2024-03-06T05:35:07;34.35;;;16.98;;
68140;SDS011;54941;52.220;104.306;2024-03-06T05:37:33;40.45;;;16.50;;
68140;SDS011;54941;52.220;104.306;2024-03-06T05:40:00;34.63;;;17.08;;
68140;SDS011;54941;52.220;104.306;2024-03-06T05:42:26;31.38;;;15.35;;
68140;SDS011;54941;52.220;104.306;2024-03-06T05:44:52;28.05;;;13.77;;
68140;SDS011;54941;52.220;104.306;2024-03-06T05:47:20;28.85;;;13.25;;
68140;SDS011;54941;52.220;104.306;2024-03-06T05:49:47;26.52;;;12.93;;
68140;SDS011;54941;52.220;104.306;2024-03-06T05:52:13;29.88;;;13.00;;
68140;SDS011;54941;52.220;104.306;2024-03-06T05:54:39;27.63;;;12.00;;
68140;SDS011;54941;52.220;104.306;2024-03-06T05:57:06;25.67;;;11.00;;
68140;SDS011;54941;52.220;104.306;2024-03-06T05:59:32;27.92;;;10.48;;
68140;SDS011;54941;52.220;104.306;2024-03-06T06:01:59;23.70;;;11.55;;
68140;SDS011;54941;52.220;104.306;2024-03-06T06:04:26;21.58;;;10.07;;
68140;SDS011;54941;52.220;104.306;2024-03-06T06:06:53;20.13;;;9.45;;
68140;SDS011;54941;52.220;104.306;2024-03-06T06:09:19;22.35;;;8.82;;
68140;SDS011;54941;52.220;104.306;2024-03-06T06:11:45;20.02;;;8.93;;
68140;SDS011;54941;52.220;104.306;2024-03-06T06:14:12;21.08;;;8.80;;
68140;SDS011;54941;52.220;104.306;2024-03-06T06:16:38;28.95;;;10.45;;
68140;SDS011;54941;52.220;104.306;2024-03-06T06:19:05;17.40;;;9.32;;
68140;SDS011;54941;52.220;104.306;2024-03-06T06:21:33;21.98;;;9.43;;
68140;SDS011;54941;52.220;104.306;2024-03-06T06:24:00;20.50;;;9.48;;
68140;SDS011;54941;52.220;104.306;2024-03-06T06:26:26;22.17;;;10.57;;
68140;SDS011;54941;52.220;104.306;2024-03-06T06:28:52;24.75;;;9.80;;
68140;SDS011;54941;52.220;104.306;2024-03-06T06:31:19;22.30;;;10.38;;
68140;SDS011;54941;52.220;104.306;2024-03-06T06:33:45;24.25;;;10.23;;
68140;SDS011;54941;52.220;104.306;2024-03-06T06:36:11;19.42;;;9.95;;
68140;SDS011;54941;52.220;104.306;2024-03-06T06:38:39;23.52;;;10.20;;
68140;SDS011;54941;52.220;104.306;2024-03-06T06:41:05;21.40;;;9.63;;
68140;SDS011;54941;52.220;104.306;2024-03-06T06:43:31;24.05;;;9.98;;
68140;SDS011;54941;52.220;104.306;2024-03-06T06:45:58;20.58;;;10.13;;
68140;SDS011;54941;52.220;104.306;2024-03-06T06:48:24;19.70;;;9.48;;
68140;SDS011;54941;52.220;104.306;2024-03-06T06:50:50;18.23;;;9.18;;
68140;SDS011;54941;52.220;104.306;2024-03-06T06:53:16;19.33;;;9.05;;
68140;SDS011;54941;52.220;104.306;2024-03-06T06:55:44;22.23;;;9.70;;
68140;SDS011;54941;52.220;104.306;2024-03-06T06:58:10;16.60;;;7.90;;
68140;SDS011;54941;52.220;104.306;2024-03-06T07:00:37;19.85;;;8.35;;
68140;SDS011;54941;52.220;104.306;2024-03-06T07:03:03;21.85;;;8.30;;
68140;SDS011;54941;52.220;104.306;2024-03-06T07:05:29;17.58;;;7.45;;
68140;SDS011;54941;52.220;104.306;2024-03-06T07:07:56;16.40;;;7.88;;
68140;SDS011;54941;52.220;104.306;2024-03-06T07:10:22;21.50;;;7.88;;
68140;SDS011;54941;52.220;104.306;2024-03-06T07:12:50;21.98;;;8.95;;
68140;SDS011;54941;52.220;104.306;2024-03-06T07:15:16;25.88;;;8.75;;
68140;SDS011;54941;52.220;104.306;2024-03-06T07:17:43;19.52;;;8.18;;
68140;SDS011;54941;52.220;104.306;2024-03-06T07:20:09;19.23;;;8.82;;
68140;SDS011;54941;52.220;104.306;2024-03-06T07:22:36;15.40;;;6.82;;
68140;SDS011;54941;52.220;104.306;2024-03-06T07:25:02;16.30;;;6.35;;
68140;SDS011;54941;52.220;104.306;2024-03-06T07:27:30;14.85;;;6.47;;
68140;SDS011;54941;52.220;104.306;2024-03-06T07:29:58;14.88;;;6.13;;
68140;SDS011;54941;52.220;104.306;2024-03-06T07:32:24;18.85;;;5.88;;
68140;SDS011;54941;52.220;104.306;2024-03-06T07:34:50;16.33;;;5.53;;
68140;SDS011;54941;52.220;104.306;2024-03-06T07:37:16;13.93;;;5.45;;
68140;SDS011;54941;52.220;104.306;2024-03-06T07:39:43;17.27;;;6.00;;
68140;SDS011;54941;52.220;104.306;2024-03-06T07:42:09;11.90;;;4.97;;
68140;SDS011;54941;52.220;104.306;2024-03-06T07:44:37;11.20;;;4.35;;
68140;SDS011;54941;52.220;104.306;2024-03-06T07:47:05;10.25;;;3.42;;
68140;SDS011;54941;52.220;104.306;2024-03-06T07:49:32;7.28;;;3.00;;
68140;SDS011;54941;52.220;104.306;2024-03-06T07:51:58;7.88;;;2.80;;
68140;SDS011;54941;52.220;104.306;2024-03-06T07:54:24;6.22;;;2.92;;
68140;SDS011;54941;52.220;104.306;2024-03-06T07:56:50;6.55;;;2.33;;
68140;SDS011;54941;52.220;104.306;2024-03-06T07:59:17;6.30;;;2.92;;
68140;SDS011;54941;52.220;104.306;2024-03-06T08:01:43;6.10;;;2.80;;
68140;SDS011;54941;52.220;104.306;2024-03-06T08:04:11;6.05;;;2.92;;
68140;SDS011;54941;52.220;104.306;2024-03-06T08:06:37;6.68;;;2.83;;
68140;SDS011;54941;52.220;104.306;2024-03-06T08:09:04;5.25;;;2.50;;
68140;SDS011;54941;52.220;104.306;2024-03-06T08:11:31;7.55;;;2.97;;
68140;SDS011;54941;52.220;104.306;2024-03-06T08:13:57;6.32;;;3.05;;
68140;SDS011;54941;52.220;104.306;2024-03-06T08:16:23;8.27;;;4.00;;
68140;SDS011;54941;52.220;104.306;2024-03-06T08:18:50;6.50;;;3.60;;
68140;SDS011;54941;52.220;104.306;2024-03-06T08:21:18;9.02;;;3.60;;
68140;SDS011;54941;52.220;104.306;2024-03-06T08:23:44;8.63;;;3.33;;
68140;SDS011;54941;52.220;104.306;2024-03-06T08:26:10;8.23;;;3.58;;
68140;SDS011;54941;52.220;104.306;2024-03-06T08:28:36;9.88;;;3.90;;
68140;SDS011;54941;52.220;104.306;2024-03-06T08:31:03;6.57;;;2.97;;
68140;SDS011;54941;52.220;104.306;2024-03-06T08:33:29;7.80;;;2.42;;
68140;SDS011;54941;52.220;104.306;2024-03-06T08:35:55;7.95;;;2.95;;
68140;SDS011;54941;52.220;104.306;2024-03-06T08:38:23;7.55;;;3.30;;
68140;SDS011;54941;52.220;104.306;2024-03-06T08:40:50;7.43;;;3.22;;
68140;SDS011;54941;52.220;104.306;2024-03-06T08:43:16;10.93;;;4.07;;
68140;SDS011;54941;52.220;104.306;2024-03-06T08:45:42;9.27;;;4.13;;
68140;SDS011;54941;52.220;104.306;2024-03-06T08:48:09;11.05;;;4.68;;
68140;SDS011;54941;52.220;104.306;2024-03-06T08:50:35;12.75;;;5.57;;
68140;SDS011;54941;52.220;104.306;2024-03-06T08:53:01;14.15;;;5.35;;
68140;SDS011;54941;52.220;104.306;2024-03-06T08:55:29;14.55;;;5.60;;
68140;SDS011;54941;52.220;104.306;2024-03-06T08:57:56;12.07;;;4.78;;
68140;SDS011;54941;52.220;104.306;2024-03-06T09:00:22;10.80;;;5.07;;
68140;SDS011;54941;52.220;104.306;2024-03-06T09:02:48;11.90;;;5.32;;
68140;SDS011;54941;52.220;104.306;2024-03-06T09:05:15;11.05;;;5.10;;
68140;SDS011;54941;52.220;104.306;2024-03-06T09:07:41;12.85;;;5.65;;
68140;SDS011;54941;52.220;104.306;2024-03-06T09:10:07;14.75;;;5.40;;
68140;SDS011;54941;52.220;104.306;2024-03-06T09:12:36;9.50;;;5.20;;
68140;SDS011;54941;52.220;104.306;2024-03-06T09:15:02;14.30;;;5.72;;
68140;SDS011;54941;52.220;104.306;2024-03-06T09:17:32;13.70;;;5.65;;
68140;SDS011;54941;52.220;104.306;2024-03-06T09:19:59;10.63;;;5.22;;
68140;SDS011;54941;52.220;104.306;2024-03-06T09:22:25;14.55;;;6.25;;
68140;SDS011;54941;52.220;104.306;2024-03-06T09:24:51;14.80;;;6.97;;
68140;SDS011;54941;52.220;104.306;2024-03-06T09:27:18;16.05;;;7.18;;
68140;SDS011;54941;52.220;104.306;2024-03-06T09:29:45;18.23;;;7.60;;
68140;SDS011;54941;52.220;104.306;2024-03-06T09:32:12;13.63;;;6.68;;
68140;SDS011;54941;52.220;104.306;2024-03-06T09:34:38;13.00;;;6.45;;
68140;SDS011;54941;52.220;104.306;2024-03-06T09:37:04;17.10;;;5.85;;
68140;SDS011;54941;52.220;104.306;2024-03-06T09:39:31;14.45;;;5.80;;
68140;SDS011;54941;52.220;104.306;2024-03-06T09:41:57;16.15;;;6.32;;
68140;SDS011;54941;52.220;104.306;2024-03-06T09:44:25;11.65;;;5.22;;
68140;SDS011;54941;52.220;104.306;2024-03-06T09:46:53;13.15;;;6.47;;
68140;SDS011;54941;52.220;104.306;2024-03-06T09:49:22;13.07;;;6.13;;
68140;SDS011;54941;52.220;104.306;2024-03-06T09:51:49;17.88;;;5.90;;
68140;SDS011;54941;52.220;104.306;2024-03-06T09:54:16;12.07;;;6.03;;
68140;SDS011;54941;52.220;104.306;2024-03-06T09:56:43;13.10;;;6.00;;
68140;SDS011;54941;52.220;104.306;2024-03-06T09:59:10;12.95;;;5.30;;
68140;SDS011;54941;52.220;104.306;2024-03-06T10:01:37;12.23;;;4.65;;
68140;SDS011;54941;52.220;104.306;2024-03-06T10:04:18;9.52;;;4.07;;
68140;SDS011;54941;52.220;104.306;2024-03-06T10:06:45;11.25;;;4.75;;
68140;SDS011;54941;52.220;104.306;2024-03-06T10:09:12;11.18;;;4.80;;
68140;SDS011;54941;52.220;104.306;2024-03-06T10:11:41;10.70;;;4.93;;
68140;SDS011;54941;52.220;104.306;2024-03-06T10:14:08;11.23;;;5.40;;
68140;SDS011;54941;52.220;104.306;2024-03-06T10:16:34;15.10;;;6.53;;
68140;SDS011;54941;52.220;104.306;2024-03-06T10:19:13;12.38;;;5.50;;
68140;SDS011;54941;52.220;104.306;2024-03-06T10:21:42;12.45;;;5.85;;
68140;SDS011;54941;52.220;104.306;2024-03-06T10:24:08;14.55;;;5.88;;
68140;SDS011;54941;52.220;104.306;2024-03-06T10:26:34;12.57;;;6.13;;
68140;SDS011;54941;52.220;104.306;2024-03-06T10:29:01;13.77;;;6.93;;
68140;SDS011;54941;52.220;104.306;2024-03-06T10:31:27;16.10;;;6.78;;
68140;SDS011;54941;52.220;104.306;2024-03-06T10:33:53;22.67;;;7.35;;
68140;SDS011;54941;52.220;104.306;2024-03-06T10:36:20;14.57;;;6.47;;
68140;SDS011;54941;52.220;104.306;2024-03-06T10:38:47;17.25;;;7.25;;
68140;SDS011;54941;52.220;104.306;2024-03-06T10:41:16;19.42;;;8.05;;
68140;SDS011;54941;52.220;104.306;2024-03-06T10:43:48;16.98;;;7.70;;
68140;SDS011;54941;52.220;104.306;2024-03-06T10:46:16;28.10;;;11.80;;
68140;SDS011;54941;52.220;104.306;2024-03-06T10:48:45;26.00;;;10.60;;
68140;SDS011;54941;52.220;104.306;2024-03-06T10:51:14;25.67;;;10.48;;
68140;SDS011;54941;52.220;104.306;2024-03-06T10:53:42;20.58;;;10.05;;
68140;SDS011;54941;52.220;104.306;2024-03-06T10:56:11;20.13;;;8.10;;
68140;SDS011;54941;52.220;104.306;2024-03-06T10:58:38;23.10;;;9.98;;
68140;SDS011;54941;52.220;104.306;2024-03-06T11:01:07;16.58;;;7.68;;
68140;SDS011;54941;52.220;104.306;2024-03-06T11:03:34;21.52;;;8.38;;
68140;SDS011;54941;52.220;104.306;2024-03-06T11:06:01;13.55;;;6.75;;
68140;SDS011;54941;52.220;104.306;2024-03-06T11:08:27;17.58;;;8.23;;
68140;SDS011;54941;52.220;104.306;2024-03-06T11:10:54;16.98;;;7.82;;
68140;SDS011;54941;52.220;104.306;2024-03-06T11:13:48;22.27;;;8.40;;
68140;SDS011;54941;52.220;104.306;2024-03-06T11:16:14;16.20;;;7.97;;
68140;SDS011;54941;52.220;104.306;2024-03-06T11:18:41;17.50;;;7.88;;
68140;SDS011;54941;52.220;104.306;2024-03-06T11:24:17;17.95;;;7.80;;
68140;SDS011;54941;52.220;104.306;2024-03-06T11:32:31;20.98;;;8.60;;
68140;SDS011;54941;52.220;104.306;2024-03-06T11:34:58;22.38;;;9.30;;
68140;SDS011;54941;52.220;104.306;2024-03-06T11:37:24;20.98;;;9.50;;
68140;SDS011;54941;52.220;104.306;2024-03-06T11:39:51;19.83;;;8.70;;
68140;SDS011;54941;52.220;104.306;2024-03-06T11:42:34;19.33;;;8.32;;
68140;SDS011;54941;52.220;104.306;2024-03-06T11:45:01;22.05;;;10.82;;
68140;SDS011;54941;52.220;104.306;2024-03-06T11:50:23;20.83;;;8.52;;
68140;SDS011;54941;52.220;104.306;2024-03-06T11:52:50;19.95;;;9.30;;
68140;SDS011;54941;52.220;104.306;2024-03-06T11:55:17;20.33;;;9.43;;
68140;SDS011;54941;52.220;104.306;2024-03-06T11:57:47;23.23;;;9.13;;
68140;SDS011;54941;52.220;104.306;2024-03-06T12:00:14;19.20;;;9.90;;
68140;SDS011;54941;52.220;104.306;2024-03-06T12:02:41;16.20;;;8.63;;
68140;SDS011;54941;52.220;104.306;2024-03-06T12:05:09;21.08;;;9.57;;
68140;SDS011;54941;52.220;104.306;2024-03-06T12:07:44;17.55;;;8.27;;
68140;SDS011;54941;52.220;104.306;2024-03-06T12:10:11;19.30;;;7.90;;
68140;SDS011;54941;52.220;104.306;2024-03-06T12:12:38;19.77;;;8.30;;
68140;SDS011;54941;52.220;104.306;2024-03-06T12:15:07;21.75;;;9.70;;
68140;SDS011;54941;52.220;104.306;2024-03-06T12:20:10;17.80;;;8.32;;
68140;SDS011;54941;52.220;104.306;2024-03-06T12:22:36;21.00;;;8.65;;
68140;SDS011;54941;52.220;104.306;2024-03-06T12:25:09;19.60;;;9.13;;
68140;SDS011;54941;52.220;104.306;2024-03-06T12:27:35;18.85;;;8.60;;
68140;SDS011;54941;52.220;104.306;2024-03-06T12:30:03;19.95;;;8.30;;
68140;SDS011;54941;52.220;104.306;2024-03-06T12:32:36;21.02;;;9.40;;
68140;SDS011;54941;52.220;104.306;2024-03-06T12:35:03;20.15;;;9.40;;
68140;SDS011;54941;52.220;104.306;2024-03-06T12:37:31;19.13;;;8.10;;
68140;SDS011;54941;52.220;104.306;2024-03-06T12:39:58;15.90;;;8.32;;
68140;SDS011;54941;52.220;104.306;2024-03-06T12:42:25;18.50;;;8.25;;
68140;SDS011;54941;52.220;104.306;2024-03-06T12:44:51;20.52;;;9.52;;
68140;SDS011;54941;52.220;104.306;2024-03-06T12:47:19;22.52;;;8.65;;
68140;SDS011;54941;52.220;104.306;2024-03-06T12:49:45;24.55;;;9.82;;
68140;SDS011;54941;52.220;104.306;2024-03-06T12:52:12;25.73;;;11.30;;
68140;SDS011;54941;52.220;104.306;2024-03-06T12:54:38;19.40;;;9.50;;
68140;SDS011;54941;52.220;104.306;2024-03-06T12:57:04;22.60;;;9.90;;
68140;SDS011;54941;52.220;104.306;2024-03-06T12:59:30;34.88;;;14.75;;
68140;SDS011;54941;52.220;104.306;2024-03-06T13:01:57;18.05;;;9.77;;
68140;SDS011;54941;52.220;104.306;2024-03-06T13:04:24;21.63;;;8.65;;
68140;SDS011;54941;52.220;104.306;2024-03-06T13:06:51;25.73;;;9.88;;
68140;SDS011;54941;52.220;104.306;2024-03-06T13:09:17;19.33;;;8.98;;
68140;SDS011;54941;52.220;104.306;2024-03-06T13:11:43;19.13;;;9.45;;
68140;SDS011;54941;52.220;104.306;2024-03-06T13:14:10;21.63;;;9.50;;
68140;SDS011;54941;52.220;104.306;2024-03-06T13:16:36;21.17;;;10.77;;
68140;SDS011;54941;52.220;104.306;2024-03-06T13:19:02;17.02;;;7.28;;
68140;SDS011;54941;52.220;104.306;2024-03-06T13:21:30;23.85;;;9.45;;
68140;SDS011;54941;52.220;104.306;2024-03-06T13:23:57;19.73;;;9.40;;
68140;SDS011;54941;52.220;104.306;2024-03-06T13:26:23;20.85;;;8.13;;
68140;SDS011;54941;52.220;104.306;2024-03-06T13:28:49;20.58;;;9.38;;
68140;SDS011;54941;52.220;104.306;2024-03-06T13:31:15;21.10;;;8.75;;
68140;SDS011;54941;52.220;104.306;2024-03-06T13:33:42;17.85;;;7.72;;
68140;SDS011;54941;52.220;104.306;2024-03-06T13:36:08;17.50;;;8.55;;
68140;SDS011;54941;52.220;104.306;2024-03-06T13:38:36;19.50;;;9.57;;
68140;SDS011;54941;52.220;104.306;2024-03-06T13:41:02;14.02;;;7.00;;
68140;SDS011;54941;52.220;104.306;2024-03-06T13:43:29;16.40;;;8.15;;
68140;SDS011;54941;52.220;104.306;2024-03-06T13:45:55;17.27;;;7.50;;
68140;SDS011;54941;52.220;104.306;2024-03-06T13:48:21;15.98;;;7.30;;
68140;SDS011;54941;52.220;104.306;2024-03-06T13:50:48;14.95;;;7.63;;
68140;SDS011;54941;52.220;104.306;2024-03-06T13:53:14;13.77;;;6.57;;
68140;SDS011;54941;52.220;104.306;2024-03-06T13:55:42;16.92;;;7.28;;
68140;SDS011;54941;52.220;104.306;2024-03-06T13:58:08;19.20;;;7.00;;
68140;SDS011;54941;52.220;104.306;2024-03-06T14:00:35;15.57;;;7.00;;
68140;SDS011;54941;52.220;104.306;2024-03-06T14:03:01;12.68;;;6.80;;
68140;SDS011;54941;52.220;104.306;2024-03-06T14:05:28;19.08;;;8.75;;
68140;SDS011;54941;52.220;104.306;2024-03-06T14:07:54;17.40;;;9.35;;
68140;SDS011;54941;52.220;104.306;2024-03-06T14:10:21;17.58;;;8.75;;
68140;SDS011;54941;52.220;104.306;2024-03-06T14:12:49;26.77;;;14.45;;
68140;SDS011;54941;52.220;104.306;2024-03-06T14:15:15;23.52;;;9.30;;
68140;SDS011;54941;52.220;104.306;2024-03-06T14:17:42;23.88;;;8.48;;